createdAt,value
2019-05-05T00:01:29.116Z,14.30
2019-05-05T00:04:08.380Z,14.87
2019-05-05T00:06:37.146Z,16.10
2019-05-05T00:09:06.375Z,13.17
2019-05-05T00:11:36.747Z,11.23
2019-05-05T00:14:10.007Z,11.47
2019-05-05T00:16:44.486Z,13.17
2019-05-05T00:19:16.307Z,13.17
2019-05-05T00:21:44.613Z,12.80
2019-05-05T00:24:15.158Z,13.10
2019-05-05T00:26:46.072Z,15.07
2019-05-05T00:29:15.024Z,15.40
2019-05-05T00:31:45.426Z,15.03
2019-05-05T00:34:15.309Z,17.10
2019-05-05T00:36:44.776Z,15.97
2019-05-05T00:39:14.948Z,17.47
2019-05-05T00:41:44.868Z,19.17
2019-05-05T00:44:15.373Z,17.00
2019-05-05T00:46:48.441Z,17.60
2019-05-05T00:49:17.129Z,17.17
2019-05-05T00:51:45.651Z,16.00
2019-05-05T00:54:14.843Z,16.20
2019-05-05T00:56:45.014Z,15.70
2019-05-05T00:59:15.569Z,14.30
2019-05-05T01:02:00.763Z,15.93
2019-05-05T01:04:39.881Z,14.93
2019-05-05T01:07:08.445Z,16.30
2019-05-05T01:09:37.051Z,16.10
2019-05-05T01:12:07.631Z,14.77
2019-05-05T01:14:39.520Z,16.10
2019-05-05T01:17:08.177Z,15.70
2019-05-05T01:19:36.789Z,17.90
2019-05-05T01:22:05.315Z,18.63
2019-05-05T01:24:34.391Z,18.00
2019-05-05T01:27:04.247Z,18.00
2019-05-05T01:29:34.642Z,19.60
2019-05-05T01:32:05.368Z,18.50
2019-05-05T01:34:35.596Z,20.03
2019-05-05T01:37:05.873Z,19.90
2019-05-05T01:39:36.049Z,18.97
2019-05-05T01:42:09.338Z,20.90
2019-05-05T01:44:37.931Z,20.97
2019-05-05T01:47:06.709Z,21.47
2019-05-05T01:49:35.301Z,20.10
2019-05-05T01:52:04.424Z,21.53
2019-05-05T01:54:35.168Z,22.03
2019-05-05T01:57:05.449Z,21.87
2019-05-05T01:59:35.345Z,23.60
2019-05-05T02:02:04.458Z,24.27
2019-05-05T02:04:34.285Z,26.10
2019-05-05T02:07:05.314Z,26.40
2019-05-05T02:09:35.403Z,25.70
2019-05-05T02:12:05.189Z,25.77
2019-05-05T02:14:35.199Z,23.80
2019-05-05T02:17:05.083Z,25.90
2019-05-05T02:19:35.036Z,26.57
2019-05-05T02:22:05.274Z,27.03
2019-05-05T02:24:35.309Z,26.50
2019-05-05T02:27:05.135Z,27.97
2019-05-05T02:29:41.497Z,28.17
2019-05-05T02:32:17.518Z,28.17
2019-05-05T02:34:47.904Z,27.10
2019-05-05T02:37:16.693Z,30.03
2019-05-05T02:39:57.247Z,27.90
2019-05-05T02:42:17.137Z,28.90
2019-05-05T02:44:46.508Z,29.83
2019-05-05T02:47:20.472Z,28.83
2019-05-05T02:49:50.167Z,29.10
2019-05-05T02:52:20.327Z,30.20
2019-05-05T02:54:50.989Z,31.20
2019-05-05T02:57:21.398Z,31.00
2019-05-05T02:59:57.620Z,29.87
2019-05-05T03:02:28.159Z,28.90
2019-05-05T03:04:56.836Z,30.63
2019-05-05T03:07:27.528Z,31.00
2019-05-05T03:09:57.806Z,30.60
2019-05-05T03:12:28.527Z,28.83
2019-05-05T03:14:59.426Z,28.97
2019-05-05T03:17:28.328Z,30.47
2019-05-05T03:19:58.191Z,27.77
2019-05-05T03:22:27.289Z,29.50
2019-05-05T03:24:56.268Z,28.67
2019-05-05T03:27:25.126Z,28.00
2019-05-05T03:29:54.083Z,29.67
2019-05-05T03:32:25.541Z,31.53
2019-05-05T03:34:53.860Z,28.97
2019-05-05T03:37:25.002Z,32.10
2019-05-05T03:39:56.081Z,31.10
2019-05-05T03:42:35.277Z,28.40
2019-05-05T03:45:19.791Z,27.87
2019-05-05T03:47:48.399Z,27.10
2019-05-05T03:50:17.339Z,28.90
2019-05-05T03:52:46.300Z,29.63
2019-05-05T03:55:15.129Z,27.83
2019-05-05T03:57:44.719Z,46.07
2019-05-05T04:00:15.393Z,35.80
2019-05-05T04:02:45.811Z,32.97
2019-05-05T04:05:23.553Z,29.40
2019-05-05T04:07:54.410Z,28.97
2019-05-05T04:10:24.478Z,28.97
2019-05-05T04:12:55.251Z,29.93
2019-05-05T04:15:24.677Z,27.27
2019-05-05T04:17:56.983Z,28.67
2019-05-05T04:20:28.953Z,27.00
2019-05-05T04:22:58.234Z,25.80
2019-05-05T04:25:27.100Z,27.03
2019-05-05T04:27:55.778Z,26.87
2019-05-05T04:30:24.711Z,25.50
2019-05-05T04:32:54.553Z,25.70
2019-05-05T04:35:24.795Z,23.50
2019-05-05T04:37:54.945Z,22.77
2019-05-05T04:40:26.792Z,22.97
2019-05-05T04:42:56.148Z,25.10
2019-05-05T04:45:25.254Z,24.17
2019-05-05T04:47:55.924Z,22.73
2019-05-05T04:50:35.220Z,22.23
2019-05-05T04:53:08.453Z,23.30
2019-05-05T04:55:37.597Z,21.90
2019-05-05T04:58:07.666Z,22.40
2019-05-05T05:00:36.289Z,22.23
2019-05-05T05:03:24.030Z,21.73
2019-05-05T05:05:57.685Z,23.40
2019-05-05T05:08:26.386Z,22.90
2019-05-05T05:10:55.515Z,19.93
2019-05-05T05:13:24.584Z,21.10
2019-05-05T05:15:53.967Z,21.10
2019-05-05T05:18:24.093Z,22.10
2019-05-05T05:20:54.839Z,21.97
2019-05-05T05:23:25.846Z,17.40
2019-05-05T05:25:54.661Z,21.87
2019-05-05T05:28:23.730Z,20.90
2019-05-05T05:30:54.404Z,20.67
2019-05-05T05:33:24.037Z,20.50
2019-05-05T05:35:54.677Z,25.37
2019-05-05T05:38:24.584Z,21.30
2019-05-05T05:40:55.082Z,38.90
2019-05-05T05:43:28.308Z,26.10
2019-05-05T05:46:01.942Z,19.17
2019-05-05T05:48:34.235Z,19.77
2019-05-05T05:51:07.430Z,21.83
2019-05-05T05:53:36.178Z,18.53
2019-05-05T05:56:05.002Z,21.83
2019-05-05T05:58:36.604Z,20.47
2019-05-05T06:01:06.830Z,22.20
2019-05-05T06:03:35.543Z,20.87
2019-05-05T06:06:04.706Z,20.77
2019-05-05T06:08:34.792Z,19.47
2019-05-05T06:11:05.037Z,24.07
2019-05-05T06:13:33.807Z,19.63
2019-05-05T06:16:04.218Z,20.13
2019-05-05T06:18:34.593Z,19.30
2019-05-05T06:21:04.498Z,22.17
2019-05-05T06:23:34.527Z,21.43
2019-05-05T06:26:06.886Z,18.20
2019-05-05T06:28:35.084Z,21.67
2019-05-05T06:31:04.798Z,21.40
2019-05-05T06:33:36.756Z,22.20
2019-05-05T06:36:05.700Z,17.17
2019-05-05T06:38:34.812Z,22.90
2019-05-05T06:41:08.550Z,21.57
2019-05-05T06:43:45.932Z,21.33
2019-05-05T06:46:25.643Z,21.93
2019-05-05T06:48:54.647Z,21.70
2019-05-05T06:51:25.587Z,40.47
2019-05-05T06:53:55.759Z,23.00
2019-05-05T06:56:27.583Z,37.27
2019-05-05T06:58:57.025Z,27.43
2019-05-05T07:01:26.494Z,15.50
2019-05-05T07:03:56.275Z,14.00
2019-05-05T07:06:25.189Z,18.70
2019-05-05T07:08:54.997Z,16.00
2019-05-05T07:11:24.350Z,19.40
2019-05-05T07:13:54.329Z,17.30
2019-05-05T07:16:24.542Z,17.53
2019-05-05T07:18:54.035Z,18.00
2019-05-05T07:21:23.825Z,15.43
2019-05-05T07:23:53.849Z,15.90
2019-05-05T07:26:26.331Z,15.33
2019-05-05T07:28:55.677Z,16.50
2019-05-05T07:31:24.307Z,18.37
2019-05-05T07:33:54.495Z,17.90
2019-05-05T07:36:41.487Z,11.43
2019-05-05T07:39:11.547Z,14.00
2019-05-05T07:41:40.697Z,16.13
2019-05-05T07:44:22.309Z,21.03
2019-05-05T07:46:39.881Z,15.90
2019-05-05T07:49:09.091Z,14.00
2019-05-05T07:51:41.370Z,11.60
2019-05-05T07:54:10.099Z,12.07
2019-05-05T07:56:39.444Z,15.43
2019-05-05T07:59:08.194Z,14.30
2019-05-05T08:01:37.035Z,9.90
2019-05-05T08:04:05.697Z,12.83
2019-05-05T08:06:34.903Z,11.60
2019-05-05T08:09:05.634Z,9.70
2019-05-05T08:11:36.168Z,8.03
2019-05-05T08:14:04.975Z,10.13
2019-05-05T08:16:54.518Z,10.20
2019-05-05T08:19:40.616Z,12.00
2019-05-05T08:22:10.742Z,9.60
2019-05-05T08:24:56.085Z,10.63
2019-05-05T08:27:44.785Z,11.30
2019-05-05T08:30:18.418Z,8.77
2019-05-05T08:32:49.449Z,10.17
2019-05-05T08:35:18.052Z,9.90
2019-05-05T08:37:46.649Z,10.23
2019-05-05T08:40:15.700Z,9.73
2019-05-05T08:42:44.622Z,8.40
2019-05-05T08:45:13.899Z,9.30
2019-05-05T08:47:44.284Z,8.97
2019-05-05T08:50:13.719Z,7.40
2019-05-05T08:52:44.383Z,6.67
2019-05-05T08:55:13.934Z,6.97
2019-05-05T08:57:44.666Z,6.20
2019-05-05T09:00:13.876Z,5.57
2019-05-05T09:02:43.813Z,5.47
2019-05-05T09:05:14.520Z,6.13
2019-05-05T09:07:44.135Z,4.85
2019-05-05T09:10:14.234Z,4.60
2019-05-05T09:12:43.702Z,6.90
2019-05-05T09:15:13.653Z,6.70
2019-05-05T09:17:43.990Z,7.10
2019-05-05T09:20:13.682Z,6.20
2019-05-05T09:22:44.518Z,5.90
2019-05-05T09:25:31.363Z,5.03
2019-05-05T09:28:07.523Z,4.90
2019-05-05T09:30:44.280Z,5.13
2019-05-05T09:33:18.032Z,5.37
2019-05-05T09:35:45.148Z,4.93
2019-05-05T09:38:14.679Z,5.63
2019-05-05T09:40:44.089Z,4.80
2019-05-05T09:43:14.798Z,3.80
2019-05-05T09:45:44.315Z,4.17
2019-05-05T09:48:13.974Z,3.80
2019-05-05T09:50:43.642Z,4.40
2019-05-05T09:53:14.534Z,4.30
2019-05-05T09:55:44.265Z,7.93
2019-05-05T09:58:13.807Z,4.20
2019-05-05T10:00:44.301Z,7.93
2019-05-05T10:03:14.497Z,7.83
2019-05-05T10:05:44.589Z,3.40
2019-05-05T10:08:14.352Z,5.00
2019-05-05T10:13:14.889Z,7.70
2019-05-05T10:15:44.485Z,5.10
2019-05-05T10:18:14.080Z,3.93
2019-05-05T10:20:43.071Z,3.20
2019-05-05T10:25:41.292Z,3.10
2019-05-05T10:28:10.056Z,4.50
2019-05-05T10:33:08.156Z,2.75
2019-05-05T10:38:04.742Z,3.77
2019-05-05T10:40:34.550Z,2.80
2019-05-05T10:43:04.818Z,3.20
2019-05-05T10:45:33.507Z,5.43
2019-05-05T10:48:04.086Z,3.25
2019-05-05T10:50:34.148Z,3.50
2019-05-05T10:53:04.528Z,2.95
2019-05-05T10:55:34.806Z,3.40
2019-05-05T10:58:04.949Z,3.10
2019-05-05T11:00:50.220Z,5.37
2019-05-05T11:03:19.723Z,3.40
2019-05-05T11:05:50.648Z,4.53
2019-05-05T11:08:19.765Z,4.40
2019-05-05T11:10:48.704Z,10.20
2019-05-05T11:15:46.938Z,6.20
2019-05-05T11:18:15.988Z,3.90
2019-05-05T11:20:45.386Z,3.60
2019-05-05T11:23:15.130Z,3.80
2019-05-05T11:25:47.420Z,3.60
2019-05-05T11:28:16.293Z,20.53
2019-05-05T11:30:47.268Z,5.60
2019-05-05T11:33:34.675Z,17.00
2019-05-05T11:36:17.608Z,8.53
2019-05-05T11:38:46.540Z,4.63
2019-05-05T11:41:15.750Z,11.70
2019-05-05T11:43:44.710Z,8.10
2019-05-05T11:46:14.202Z,3.90
2019-05-05T11:48:44.007Z,3.00
2019-05-05T11:51:14.917Z,3.57
2019-05-05T12:01:13.854Z,4.00
2019-05-05T12:03:44.379Z,4.23
2019-05-05T12:06:14.716Z,3.87
2019-05-05T12:08:45.867Z,3.47
2019-05-05T12:11:15.400Z,3.80
2019-05-05T12:13:44.002Z,4.20
2019-05-05T12:16:14.222Z,2.93
2019-05-05T12:18:44.203Z,3.40
2019-05-05T12:21:13.956Z,3.70
2019-05-05T12:23:44.464Z,3.60
2019-05-05T12:26:15.068Z,3.03
2019-05-05T12:28:45.469Z,2.90
2019-05-05T12:31:18.661Z,2.87
2019-05-05T12:33:47.732Z,2.10
2019-05-05T12:36:16.370Z,2.93
2019-05-05T12:38:45.238Z,2.50
2019-05-05T12:41:15.466Z,2.50
2019-05-05T12:43:44.359Z,2.70
2019-05-05T12:46:24.319Z,2.80
2019-05-05T12:48:54.695Z,3.00
2019-05-05T12:51:23.691Z,3.07
2019-05-05T12:53:54.696Z,3.00
2019-05-05T12:56:23.879Z,3.23
2019-05-05T12:58:54.331Z,3.20
2019-05-05T13:01:36.633Z,3.23
2019-05-05T13:04:05.346Z,3.20
2019-05-05T13:06:34.606Z,2.80
2019-05-05T13:09:04.860Z,2.80
2019-05-05T13:11:34.689Z,3.00
2019-05-05T13:14:03.688Z,3.77
2019-05-05T13:16:33.105Z,2.57
2019-05-05T13:19:04.435Z,4.23
2019-05-05T13:21:46.741Z,5.07
2019-05-05T13:24:34.331Z,2.93
2019-05-05T13:27:09.733Z,2.83
2019-05-05T13:29:37.882Z,3.10
2019-05-05T13:32:06.648Z,3.90
2019-05-05T13:34:35.441Z,3.00
2019-05-05T13:37:04.153Z,2.73
2019-05-05T13:39:34.054Z,2.63
2019-05-05T13:42:04.550Z,3.10
2019-05-05T13:44:49.630Z,2.90
2019-05-05T13:47:18.337Z,3.30
2019-05-05T13:49:46.951Z,4.00
2019-05-05T13:52:15.405Z,3.47
2019-05-05T13:54:43.950Z,4.43
2019-05-05T13:57:14.230Z,3.03
2019-05-05T13:59:44.454Z,4.93
2019-05-05T14:02:13.739Z,3.70
2019-05-05T14:04:43.794Z,3.60
2019-05-05T14:07:12.722Z,3.53
2019-05-05T14:09:41.370Z,4.17
2019-05-05T14:12:10.054Z,3.63
2019-05-05T14:14:38.702Z,4.70
2019-05-05T14:17:07.232Z,4.10
2019-05-05T14:19:35.690Z,3.67
2019-05-05T14:22:04.631Z,4.10
2019-05-05T14:24:38.703Z,4.43
2019-05-05T14:27:07.298Z,4.03
2019-05-05T14:29:37.394Z,3.23
2019-05-05T14:32:07.177Z,3.57
2019-05-05T14:34:37.291Z,3.40
2019-05-05T14:37:24.818Z,2.93
2019-05-05T14:39:54.514Z,3.10
2019-05-05T14:42:23.660Z,4.33
2019-05-05T14:44:54.351Z,4.20
2019-05-05T14:47:24.535Z,3.17
2019-05-05T14:49:54.251Z,3.40
2019-05-05T14:52:24.701Z,3.23
2019-05-05T14:54:54.334Z,3.80
2019-05-05T14:57:28.113Z,3.70
2019-05-05T14:59:56.871Z,3.73
2019-05-05T15:02:28.624Z,3.53
2019-05-05T15:04:59.183Z,2.87
2019-05-05T15:07:35.415Z,2.90
2019-05-05T15:10:24.057Z,3.30
2019-05-05T15:12:54.351Z,3.80
2019-05-05T15:15:24.746Z,3.40
2019-05-05T15:17:53.763Z,3.60
2019-05-05T15:20:24.305Z,3.67
2019-05-05T15:22:54.101Z,3.50
2019-05-05T15:25:23.440Z,3.50
2019-05-05T15:27:54.067Z,3.83
2019-05-05T15:30:26.987Z,3.37
2019-05-05T15:32:54.251Z,3.40
2019-05-05T15:35:22.902Z,3.63
2019-05-05T15:37:51.377Z,3.40
2019-05-05T15:40:20.039Z,3.70
2019-05-05T15:42:48.632Z,3.47
2019-05-05T15:45:17.233Z,3.70
2019-05-05T15:47:45.885Z,3.83
2019-05-05T15:50:15.620Z,4.17
2019-05-05T15:52:44.307Z,3.97
2019-05-05T15:55:14.088Z,3.73
2019-05-05T15:57:44.249Z,3.90
2019-05-05T16:00:14.191Z,3.93
2019-05-05T16:02:44.121Z,3.90
2019-05-05T16:05:13.865Z,4.43
2019-05-05T16:07:43.996Z,4.50
2019-05-05T16:10:14.262Z,4.10
2019-05-05T16:12:45.100Z,4.90
2019-05-05T16:15:21.829Z,4.80
2019-05-05T16:17:54.958Z,4.23
2019-05-05T16:20:28.695Z,5.40
2019-05-05T16:22:58.868Z,4.67
2019-05-05T16:25:27.413Z,5.27
2019-05-05T16:27:56.072Z,3.97
2019-05-05T16:30:24.746Z,3.90
2019-05-05T16:32:55.117Z,4.60
2019-05-05T16:35:23.783Z,4.23
2019-05-05T16:37:54.055Z,4.43
2019-05-05T16:40:25.271Z,5.20
2019-05-05T16:42:54.400Z,4.60
2019-05-05T16:45:24.680Z,3.83
2019-05-05T16:47:54.558Z,4.00
2019-05-05T16:50:25.140Z,4.20
2019-05-05T16:53:04.588Z,3.87
2019-05-05T16:55:41.214Z,3.57
2019-05-05T16:58:09.875Z,3.83
2019-05-05T17:00:38.907Z,3.90
2019-05-05T17:03:07.587Z,4.30
2019-05-05T17:05:36.354Z,4.20
2019-05-05T17:08:05.227Z,4.30
2019-05-05T17:10:35.476Z,4.17
2019-05-05T17:13:08.264Z,3.93
2019-05-05T17:15:38.564Z,4.53
2019-05-05T17:18:33.595Z,4.20
2019-05-05T17:21:06.698Z,3.60
2019-05-05T17:23:35.252Z,4.20
2019-05-05T17:26:03.975Z,4.10
2019-05-05T17:28:33.521Z,3.93
2019-05-05T17:31:02.537Z,4.20
2019-05-05T17:33:31.312Z,3.87
2019-05-05T17:35:59.930Z,4.50
2019-05-05T17:38:28.568Z,3.93
2019-05-05T17:41:04.808Z,3.73
2019-05-05T17:43:37.694Z,4.47
2019-05-05T17:46:13.735Z,4.27
2019-05-05T17:48:47.424Z,3.60
2019-05-05T17:51:34.139Z,4.00
2019-05-05T17:54:17.139Z,3.97
2019-05-05T17:56:45.822Z,3.33
2019-05-05T17:59:17.217Z,3.33
2019-05-05T18:01:45.851Z,3.40
2019-05-05T18:04:18.458Z,3.40
2019-05-05T18:06:57.685Z,3.20
2019-05-05T18:09:44.379Z,3.40
2019-05-05T18:12:15.687Z,4.50
2019-05-05T18:14:49.542Z,3.30
2019-05-05T18:17:18.134Z,3.30
2019-05-05T18:19:46.647Z,3.67
2019-05-05T18:22:15.284Z,3.80
2019-05-05T18:24:44.614Z,3.77
2019-05-05T18:27:14.080Z,3.37
2019-05-05T18:29:43.619Z,3.30
2019-05-05T18:32:13.852Z,3.80
2019-05-05T18:34:42.858Z,4.03
2019-05-05T18:37:11.490Z,3.90
2019-05-05T18:39:40.078Z,3.80
2019-05-05T18:42:10.307Z,3.80
2019-05-05T18:44:46.762Z,4.33
2019-05-05T18:47:18.683Z,4.33
2019-05-05T18:49:49.130Z,4.93
2019-05-05T18:52:18.600Z,4.63
2019-05-05T18:54:47.299Z,4.30
2019-05-05T18:57:16.017Z,5.20
2019-05-05T18:59:47.146Z,4.55
2019-05-05T19:02:21.787Z,4.60
2019-05-05T19:04:58.248Z,4.20
2019-05-05T19:07:34.347Z,4.40
2019-05-05T19:10:04.063Z,4.40
2019-05-05T19:12:34.684Z,4.73
2019-05-05T19:15:04.373Z,4.30
2019-05-05T19:17:34.500Z,4.20
2019-05-05T19:20:06.645Z,4.50
2019-05-05T19:22:36.137Z,4.37
2019-05-05T19:25:15.403Z,4.77
2019-05-05T19:27:45.952Z,4.87
2019-05-05T19:30:17.830Z,5.10
2019-05-05T19:32:46.881Z,5.20
2019-05-05T19:35:15.556Z,5.40
2019-05-05T19:37:45.212Z,5.37
2019-05-05T19:40:14.233Z,5.57
2019-05-05T19:42:45.947Z,4.80
2019-05-05T19:45:13.723Z,5.60
2019-05-05T19:47:43.910Z,4.47
2019-05-05T19:50:30.690Z,4.60
2019-05-05T19:52:59.572Z,4.53
2019-05-05T19:55:29.204Z,5.33
2019-05-05T19:57:58.740Z,5.50
2019-05-05T20:00:27.412Z,4.70
2019-05-05T20:03:04.304Z,5.57
2019-05-05T20:05:26.562Z,5.27
2019-05-05T20:07:55.492Z,5.37
2019-05-05T20:10:24.039Z,5.00
2019-05-05T20:12:53.974Z,5.30
2019-05-05T20:15:24.439Z,4.60
2019-05-05T20:17:53.911Z,5.67
2019-05-05T20:20:22.671Z,4.90
2019-05-05T20:22:51.381Z,5.13
2019-05-05T20:25:19.850Z,5.67
2019-05-05T20:27:48.415Z,4.63
2019-05-05T20:30:17.716Z,5.17
2019-05-05T20:32:59.831Z,5.63
2019-05-05T20:35:30.022Z,4.80
2019-05-05T20:38:04.786Z,5.30
2019-05-05T20:40:35.222Z,6.10
2019-05-05T20:43:04.123Z,3.70
2019-05-05T20:45:34.706Z,4.13
2019-05-05T20:48:04.587Z,3.87
2019-05-05T20:50:34.349Z,4.50
2019-05-05T20:53:04.865Z,5.50
2019-05-05T20:55:33.952Z,5.43
2019-05-05T20:58:04.654Z,6.80
2019-05-05T21:00:34.773Z,9.77
2019-05-05T21:03:04.741Z,7.30
2019-05-05T21:05:34.494Z,6.40
2019-05-05T21:08:04.725Z,6.40
2019-05-05T21:10:34.763Z,5.97
2019-05-05T21:13:05.166Z,7.17
2019-05-05T21:15:34.246Z,7.33
2019-05-05T21:18:04.859Z,7.43
2019-05-05T21:20:34.686Z,5.10
2019-05-05T21:23:05.235Z,4.33
2019-05-05T21:25:38.889Z,4.60
2019-05-05T21:28:07.338Z,4.53
2019-05-05T21:30:35.928Z,5.17
2019-05-05T21:33:04.666Z,5.50
2019-05-05T21:35:34.865Z,4.77
2019-05-05T21:38:04.714Z,5.00
2019-05-05T21:40:34.613Z,5.70
2019-05-05T21:43:04.948Z,4.93
2019-05-05T21:45:34.719Z,7.50
2019-05-05T21:48:04.309Z,6.20
2019-05-05T21:50:38.112Z,7.67
2019-05-05T21:53:10.700Z,6.30
2019-05-05T21:55:52.727Z,6.40
2019-05-05T21:58:25.283Z,6.20
2019-05-05T22:00:54.959Z,6.33
2019-05-05T22:03:34.686Z,6.13
2019-05-05T22:06:04.037Z,5.83
2019-05-05T22:08:33.616Z,5.70
2019-05-05T22:11:03.927Z,6.30
2019-05-05T22:13:36.183Z,5.97
2019-05-05T22:16:04.073Z,6.70
2019-05-05T22:18:32.936Z,6.20
2019-05-05T22:21:19.342Z,5.87
2019-05-05T22:24:05.529Z,6.37
2019-05-05T22:26:34.139Z,7.67
2019-05-05T22:29:04.708Z,7.90
2019-05-05T22:31:34.584Z,7.20
2019-05-05T22:34:05.318Z,7.40
2019-05-05T22:36:34.281Z,6.80
2019-05-05T22:39:03.119Z,8.70
2019-05-05T22:41:33.631Z,6.90
2019-05-05T22:44:04.354Z,7.73
2019-05-05T22:46:34.627Z,7.43
2019-05-05T22:49:03.948Z,7.70
2019-05-05T22:51:33.800Z,7.90
2019-05-05T22:54:03.953Z,8.17
2019-05-05T22:56:33.727Z,7.50
2019-05-05T22:59:04.365Z,6.73
2019-05-05T23:01:33.171Z,6.60
2019-05-05T23:04:09.727Z,7.27
2019-05-05T23:06:43.829Z,6.90
2019-05-05T23:09:15.200Z,8.80
2019-05-05T23:11:44.097Z,8.30
2019-05-05T23:14:28.254Z,6.93
2019-05-05T23:17:04.704Z,7.70
2019-05-05T23:19:37.709Z,7.20
2019-05-05T23:22:10.396Z,7.50
2019-05-05T23:24:40.641Z,7.93
2019-05-05T23:27:10.919Z,10.07
2019-05-05T23:29:39.458Z,8.00
2019-05-05T23:32:08.088Z,7.60
2019-05-05T23:34:36.667Z,7.03
2019-05-05T23:37:05.143Z,9.40
2019-05-05T23:39:33.681Z,9.30
2019-05-05T23:42:04.051Z,10.60
2019-05-05T23:44:34.426Z,11.00
2019-05-05T23:47:04.412Z,9.70
2019-05-05T23:49:34.878Z,9.43
2019-05-05T23:52:04.410Z,9.60
2019-05-05T23:54:34.117Z,8.37
2019-05-05T23:57:04.763Z,8.43
2019-05-05T23:59:33.329Z,8.13
